sensor_id;sensor_type;location;lat;lon;timestamp;pressure;altitude;pressure_sealevel;temperature;humidity
72975;BME280;74127;54.228;37.632;2024-02-26T00:01:46;1006.367;;;-4.27;60.68359
72975;BME280;74127;54.228;37.632;2024-02-26T00:05:46;1006.423;;;-4.31;60.84668
72975;BME280;74127;54.228;37.632;2024-02-26T00:09:46;1006.397;;;-4.37;61.22559
72975;BME280;74127;54.228;37.632;2024-02-26T00:13:46;1006.286;;;-4.37;61.30957
72975;BME280;74127;54.228;37.632;2024-02-26T00:17:46;1006.286;;;-4.37;61.30957
72975;BME280;74127;54.228;37.632;2024-02-26T00:21:47;1006.329;;;-4.46;61.52637
72975;BME280;74127;54.228;37.632;2024-02-26T00:25:46;1006.357;;;-4.45;61.82227
72975;BME280;74127;54.228;37.632;2024-02-26T00:29:46;1006.341;;;-4.49;61.91016
72975;BME280;74127;54.228;37.632;2024-02-26T00:33:46;1006.407;;;-4.52;62.14746
72975;BME280;74127;54.228;37.632;2024-02-26T00:37:46;1006.407;;;-4.52;62.14746
72975;BME280;74127;54.228;37.632;2024-02-26T00:41:46;1006.321;;;-4.53;62.41797
72975;BME280;74127;54.228;37.632;2024-02-26T00:45:46;1006.301;;;-4.54;62.55273
72975;BME280;74127;54.228;37.632;2024-02-26T00:49:46;1006.231;;;-4.62;62.72949
72975;BME280;74127;54.228;37.632;2024-02-26T00:53:46;1006.304;;;-4.65;62.93457
72975;BME280;74127;54.228;37.632;2024-02-26T00:57:46;1006.304;;;-4.65;62.93457
72975;BME280;74127;54.228;37.632;2024-02-26T01:01:46;1006.351;;;-4.63;63.03125
72975;BME280;74127;54.228;37.632;2024-02-26T01:05:46;1006.169;;;-4.6;63.18262
72975;BME280;74127;54.228;37.632;2024-02-26T01:09:46;1006.185;;;-4.7;63.45117
72975;BME280;74127;54.228;37.632;2024-02-26T01:13:46;1006.126;;;-4.71;63.74316
72975;BME280;74127;54.228;37.632;2024-02-26T01:17:46;1006.126;;;-4.71;63.74316
72975;BME280;74127;54.228;37.632;2024-02-26T01:21:46;1006.207;;;-4.66;64.07422
72975;BME280;74127;54.228;37.632;2024-02-26T01:25:46;1006.134;;;-4.64;64.03516
72975;BME280;74127;54.228;37.632;2024-02-26T01:29:46;1006.073;;;-4.66;64.40918
72975;BME280;74127;54.228;37.632;2024-02-26T01:33:46;1006.083;;;-4.64;64.41113
72975;BME280;74127;54.228;37.632;2024-02-26T01:37:46;1006.083;;;-4.64;64.41113
72975;BME280;74127;54.228;37.632;2024-02-26T01:41:46;1006.095;;;-4.65;64.59961
72975;BME280;74127;54.228;37.632;2024-02-26T01:45:46;1006.076;;;-4.61;64.8457
72975;BME280;74127;54.228;37.632;2024-02-26T01:49:46;1006.099;;;-4.61;64.89844
72975;BME280;74127;54.228;37.632;2024-02-26T01:53:46;1006.101;;;-4.63;65.08398
72975;BME280;74127;54.228;37.632;2024-02-26T01:57:48;1006.101;;;-4.63;65.08398
72975;BME280;74127;54.228;37.632;2024-02-26T02:01:48;1005.992;;;-4.57;65.33301
72975;BME280;74127;54.228;37.632;2024-02-26T02:05:46;1005.96;;;-4.56;65.34473
72975;BME280;74127;54.228;37.632;2024-02-26T02:09:46;1005.886;;;-4.56;65.45117
72975;BME280;74127;54.228;37.632;2024-02-26T02:13:46;1005.908;;;-4.57;65.68848
72975;BME280;74127;54.228;37.632;2024-02-26T02:17:46;1005.908;;;-4.57;65.68848
72975;BME280;74127;54.228;37.632;2024-02-26T02:21:46;1005.795;;;-4.5;65.70996
72975;BME280;74127;54.228;37.632;2024-02-26T02:25:46;1005.768;;;-4.51;65.82422
72975;BME280;74127;54.228;37.632;2024-02-26T02:29:47;1005.735;;;-4.47;65.93652
72975;BME280;74127;54.228;37.632;2024-02-26T02:33:46;1005.713;;;-4.43;65.89941
72975;BME280;74127;54.228;37.632;2024-02-26T02:37:46;1005.713;;;-4.43;65.89941
72975;BME280;74127;54.228;37.632;2024-02-26T02:41:46;1005.775;;;-4.43;66.0459
72975;BME280;74127;54.228;37.632;2024-02-26T02:45:46;1005.639;;;-4.41;66.06055
72975;BME280;74127;54.228;37.632;2024-02-26T02:49:46;1005.705;;;-4.37;66.12891
72975;BME280;74127;54.228;37.632;2024-02-26T02:53:46;1005.769;;;-4.41;66.17383
72975;BME280;74127;54.228;37.632;2024-02-26T02:57:46;1005.769;;;-4.41;66.17383
72975;BME280;74127;54.228;37.632;2024-02-26T03:01:46;1005.659;;;-4.41;66.37305
72975;BME280;74127;54.228;37.632;2024-02-26T03:05:46;1005.66;;;-4.43;66.53809
72975;BME280;74127;54.228;37.632;2024-02-26T03:09:46;1005.654;;;-4.39;66.64941
72975;BME280;74127;54.228;37.632;2024-02-26T03:13:47;1005.646;;;-4.44;66.7998
72975;BME280;74127;54.228;37.632;2024-02-26T03:17:46;1005.646;;;-4.44;66.7998
72975;BME280;74127;54.228;37.632;2024-02-26T03:21:46;1005.687;;;-4.36;66.83105
72975;BME280;74127;54.228;37.632;2024-02-26T03:25:46;1005.688;;;-4.33;66.85742
72975;BME280;74127;54.228;37.632;2024-02-26T03:29:47;1005.681;;;-4.33;67.06543
72975;BME280;74127;54.228;37.632;2024-02-26T03:33:47;1005.691;;;-4.48;67.46191
72975;BME280;74127;54.228;37.632;2024-02-26T03:37:47;1005.691;;;-4.48;67.46191
72975;BME280;74127;54.228;37.632;2024-02-26T03:41:47;1005.7;;;-4.48;67.61914
72975;BME280;74127;54.228;37.632;2024-02-26T03:45:47;1005.707;;;-4.5;67.81348
72975;BME280;74127;54.228;37.632;2024-02-26T03:49:47;1005.729;;;-4.54;68.00684
72975;BME280;74127;54.228;37.632;2024-02-26T03:53:47;1005.773;;;-4.57;68.11621
72975;BME280;74127;54.228;37.632;2024-02-26T03:57:47;1005.773;;;-4.57;68.11621
72975;BME280;74127;54.228;37.632;2024-02-26T04:01:47;1005.714;;;-4.54;68.12207
72975;BME280;74127;54.228;37.632;2024-02-26T04:05:47;1005.776;;;-4.54;68.18359
72975;BME280;74127;54.228;37.632;2024-02-26T04:09:47;1005.762;;;-4.58;68.39844
72975;BME280;74127;54.228;37.632;2024-02-26T04:13:47;1005.705;;;-4.6;68.51953
72975;BME280;74127;54.228;37.632;2024-02-26T04:17:47;1005.705;;;-4.6;68.51953
72975;BME280;74127;54.228;37.632;2024-02-26T04:21:47;1005.674;;;-4.6;68.63477
72975;BME280;74127;54.228;37.632;2024-02-26T04:25:47;1005.742;;;-4.64;68.80664
72975;BME280;74127;54.228;37.632;2024-02-26T04:29:47;1005.728;;;-4.64;68.93164
72975;BME280;74127;54.228;37.632;2024-02-26T04:33:47;1005.703;;;-4.69;69.14258
72975;BME280;74127;54.228;37.632;2024-02-26T04:37:47;1005.703;;;-4.69;69.14258
72975;BME280;74127;54.228;37.632;2024-02-26T04:41:47;1005.71;;;-4.68;69.1748
72975;BME280;74127;54.228;37.632;2024-02-26T04:45:47;1005.688;;;-4.62;69.17578
72975;BME280;74127;54.228;37.632;2024-02-26T04:49:47;1005.744;;;-4.6;69.17871
72975;BME280;74127;54.228;37.632;2024-02-26T04:53:47;1005.771;;;-4.53;69.10742
72975;BME280;74127;54.228;37.632;2024-02-26T04:57:47;1005.771;;;-4.53;69.10742
72975;BME280;74127;54.228;37.632;2024-02-26T05:01:47;1005.792;;;-4.55;69.23828
72975;BME280;74127;54.228;37.632;2024-02-26T05:05:47;1005.658;;;-4.58;69.37109
72975;BME280;74127;54.228;37.632;2024-02-26T05:09:47;1005.661;;;-4.51;69.29785
72975;BME280;74127;54.228;37.632;2024-02-26T05:13:47;1005.65;;;-4.46;69.26367
72975;BME280;74127;54.228;37.632;2024-02-26T05:21:47;1005.83;;;-4.34;69.06445
72975;BME280;74127;54.228;37.632;2024-02-26T05:25:48;1005.81;;;-4.23;68.91504
72975;BME280;74127;54.228;37.632;2024-02-26T05:29:47;1005.839;;;-4.17;68.75684
72975;BME280;74127;54.228;37.632;2024-02-26T05:33:47;1005.783;;;-4.13;68.75195
72975;BME280;74127;54.228;37.632;2024-02-26T05:37:47;1005.783;;;-4.13;68.75195
72975;BME280;74127;54.228;37.632;2024-02-26T05:41:47;1005.729;;;-3.99;68.47168
72975;BME280;74127;54.228;37.632;2024-02-26T05:45:47;1005.793;;;-3.95;68.33105
72975;BME280;74127;54.228;37.632;2024-02-26T05:49:47;1005.78;;;-3.86;68.10645
72975;BME280;74127;54.228;37.632;2024-02-26T05:53:47;1005.759;;;-3.85;68.16992
72975;BME280;74127;54.228;37.632;2024-02-26T05:57:47;1005.759;;;-3.85;68.16992
72975;BME280;74127;54.228;37.632;2024-02-26T06:01:47;1005.772;;;-3.85;68.13965
72975;BME280;74127;54.228;37.632;2024-02-26T06:05:47;1005.872;;;-3.84;68.15137
72975;BME280;74127;54.228;37.632;2024-02-26T06:09:47;1005.885;;;-3.8;67.96777
72975;BME280;74127;54.228;37.632;2024-02-26T06:13:47;1005.885;;;-3.76;68.10059
72975;BME280;74127;54.228;37.632;2024-02-26T06:17:47;1005.885;;;-3.76;68.10059
72975;BME280;74127;54.228;37.632;2024-02-26T06:21:47;1005.886;;;-3.67;67.68555
72975;BME280;74127;54.228;37.632;2024-02-26T06:25:47;1005.783;;;-3.45;67.59473
72975;BME280;74127;54.228;37.632;2024-02-26T06:29:47;1005.812;;;-3.46;67.09961
72975;BME280;74127;54.228;37.632;2024-02-26T06:33:47;1005.831;;;-3.4;66.80469
72975;BME280;74127;54.228;37.632;2024-02-26T06:37:47;1005.831;;;-3.4;66.80469
72975;BME280;74127;54.228;37.632;2024-02-26T06:41:47;1005.798;;;-3.44;66.83203
72975;BME280;74127;54.228;37.632;2024-02-26T06:45:47;1005.8;;;-3.43;66.79102
72975;BME280;74127;54.228;37.632;2024-02-26T06:49:47;1005.894;;;-3.41;66.99219
72975;BME280;74127;54.228;37.632;2024-02-26T06:53:47;1005.914;;;-3.14;66.21777
72975;BME280;74127;54.228;37.632;2024-02-26T06:57:47;1005.914;;;-3.14;66.21777
72975;BME280;74127;54.228;37.632;2024-02-26T07:01:47;1005.91;;;-3.17;65.66699
72975;BME280;74127;54.228;37.632;2024-02-26T07:05:47;1005.884;;;-3.26;65.94629
72975;BME280;74127;54.228;37.632;2024-02-26T07:09:47;1005.856;;;-3.27;65.9873
72975;BME280;74127;54.228;37.632;2024-02-26T07:13:47;1005.899;;;-3.29;65.85645
72975;BME280;74127;54.228;37.632;2024-02-26T07:17:47;1005.899;;;-3.29;65.85645
72975;BME280;74127;54.228;37.632;2024-02-26T07:21:47;1006.022;;;-3.29;66.22363
72975;BME280;74127;54.228;37.632;2024-02-26T07:25:47;1005.881;;;-3.25;66.14746
72975;BME280;74127;54.228;37.632;2024-02-26T07:29:47;1005.954;;;-3.02;65.33301
72975;BME280;74127;54.228;37.632;2024-02-26T07:33:47;1005.916;;;-3.02;65.13184
72975;BME280;74127;54.228;37.632;2024-02-26T07:37:47;1005.916;;;-3.02;65.13184
72975;BME280;74127;54.228;37.632;2024-02-26T07:41:47;1005.998;;;-2.99;64.83301
72975;BME280;74127;54.228;37.632;2024-02-26T07:45:47;1005.979;;;-3.17;64.99512
72975;BME280;74127;54.228;37.632;2024-02-26T07:49:47;1005.886;;;-3.2;65.66113
72975;BME280;74127;54.228;37.632;2024-02-26T07:53:47;1005.991;;;-3.03;65.07813
72975;BME280;74127;54.228;37.632;2024-02-26T07:57:47;1005.991;;;-3.03;65.07813
72975;BME280;74127;54.228;37.632;2024-02-26T08:01:50;1005.871;;;-3.01;64.82813
72975;BME280;74127;54.228;37.632;2024-02-26T08:05:47;1005.971;;;-2.97;64.83594
72975;BME280;74127;54.228;37.632;2024-02-26T08:09:47;1005.914;;;-2.8;64.21973
72975;BME280;74127;54.228;37.632;2024-02-26T08:13:47;1005.899;;;-2.72;63.95898
72975;BME280;74127;54.228;37.632;2024-02-26T08:17:47;1005.899;;;-2.72;63.95898
72975;BME280;74127;54.228;37.632;2024-02-26T08:21:47;1005.902;;;-2.64;63.25488
72975;BME280;74127;54.228;37.632;2024-02-26T08:25:47;1006.031;;;-2.66;62.85254
72975;BME280;74127;54.228;37.632;2024-02-26T08:29:47;1005.957;;;-2.57;62.64355
72975;BME280;74127;54.228;37.632;2024-02-26T08:33:47;1005.896;;;-2.47;61.93262
72975;BME280;74127;54.228;37.632;2024-02-26T08:37:47;1005.896;;;-2.47;61.93262
72975;BME280;74127;54.228;37.632;2024-02-26T08:41:47;1005.955;;;-2.35;61.87695
72975;BME280;74127;54.228;37.632;2024-02-26T08:45:47;1005.943;;;-2.21;60
72975;BME280;74127;54.228;37.632;2024-02-26T08:49:47;1005.84;;;-2.1;60.24707
72975;BME280;74127;54.228;37.632;2024-02-26T08:53:47;1005.825;;;-1.94;59.26758
72975;BME280;74127;54.228;37.632;2024-02-26T08:57:47;1005.825;;;-1.94;59.26758
72975;BME280;74127;54.228;37.632;2024-02-26T09:01:47;1005.946;;;-1.79;58.34863
72975;BME280;74127;54.228;37.632;2024-02-26T09:05:47;1005.794;;;-2.1;56.63867
72975;BME280;74127;54.228;37.632;2024-02-26T09:09:47;1005.822;;;-1.97;56.99414
72975;BME280;74127;54.228;37.632;2024-02-26T09:13:47;1005.667;;;-1.99;54.33008
72975;BME280;74127;54.228;37.632;2024-02-26T09:21:47;1005.763;;;-2.04;55.35938
72975;BME280;74127;54.228;37.632;2024-02-26T09:25:47;1005.626;;;-2.05;55.68457
72975;BME280;74127;54.228;37.632;2024-02-26T09:29:47;1005.554;;;-1.96;54.37598
72975;BME280;74127;54.228;37.632;2024-02-26T09:33:47;1005.619;;;-1.91;54.04395
72975;BME280;74127;54.228;37.632;2024-02-26T09:37:47;1005.619;;;-1.91;54.04395
72975;BME280;74127;54.228;37.632;2024-02-26T09:41:47;1005.593;;;-1.87;55.49609
72975;BME280;74127;54.228;37.632;2024-02-26T09:45:48;1005.619;;;-1.79;55.37012
72975;BME280;74127;54.228;37.632;2024-02-26T09:49:47;1005.561;;;-1.77;54.92871
72975;BME280;74127;54.228;37.632;2024-02-26T09:53:47;1005.566;;;-1.79;54.79883
72975;BME280;74127;54.228;37.632;2024-02-26T09:57:47;1005.566;;;-1.79;54.79883
72975;BME280;74127;54.228;37.632;2024-02-26T10:01:47;1005.452;;;-1.83;54.35156
72975;BME280;74127;54.228;37.632;2024-02-26T10:05:47;1005.365;;;-1.92;54
72975;BME280;74127;54.228;37.632;2024-02-26T10:09:47;1005.401;;;-1.98;54.5957
72975;BME280;74127;54.228;37.632;2024-02-26T10:13:47;1005.283;;;-1.89;53.99316
72975;BME280;74127;54.228;37.632;2024-02-26T10:17:47;1005.283;;;-1.89;53.99316
72975;BME280;74127;54.228;37.632;2024-02-26T10:21:47;1005.387;;;-1.91;53.43066
72975;BME280;74127;54.228;37.632;2024-02-26T10:25:52;1005.414;;;-1.89;53.34961
72975;BME280;74127;54.228;37.632;2024-02-26T10:33:48;1005.258;;;-1.78;52.79102
72975;BME280;74127;54.228;37.632;2024-02-26T10:37:49;1005.258;;;-1.78;52.79102
72975;BME280;74127;54.228;37.632;2024-02-26T10:41:47;1005.31;;;-1.79;51.72168
72975;BME280;74127;54.228;37.632;2024-02-26T10:45:47;1005.205;;;-1.92;52.2666
72975;BME280;74127;54.228;37.632;2024-02-26T10:49:47;1005.167;;;-1.83;52.37305
72975;BME280;74127;54.228;37.632;2024-02-26T10:53:47;1005.094;;;-1.69;51.81738
72975;BME280;74127;54.228;37.632;2024-02-26T10:57:47;1005.094;;;-1.69;51.81738
72975;BME280;74127;54.228;37.632;2024-02-26T11:01:48;1005.077;;;-1.73;52.03613
72975;BME280;74127;54.228;37.632;2024-02-26T11:05:50;1005.075;;;-1.72;52.22754
72975;BME280;74127;54.228;37.632;2024-02-26T11:09:47;1005.056;;;-1.57;52.50098
72975;BME280;74127;54.228;37.632;2024-02-26T11:13:48;1004.945;;;-1.5;51.52539
72975;BME280;74127;54.228;37.632;2024-02-26T11:17:47;1004.945;;;-1.5;51.52539
72975;BME280;74127;54.228;37.632;2024-02-26T11:21:47;1004.874;;;-1.66;52.09766
72975;BME280;74127;54.228;37.632;2024-02-26T11:25:48;1004.907;;;-1.64;52.21582
72975;BME280;74127;54.228;37.632;2024-02-26T11:29:48;1004.871;;;-1.67;52.34082
72975;BME280;74127;54.228;37.632;2024-02-26T11:33:47;1004.799;;;-1.56;52.22656
72975;BME280;74127;54.228;37.632;2024-02-26T11:37:51;1004.799;;;-1.56;52.22656
72975;BME280;74127;54.228;37.632;2024-02-26T11:41:47;1004.622;;;-1.62;51.38379
72975;BME280;74127;54.228;37.632;2024-02-26T11:45:48;1004.722;;;-1.66;51.55859
72975;BME280;74127;54.228;37.632;2024-02-26T11:49:48;1004.787;;;-1.63;51.37207
72975;BME280;74127;54.228;37.632;2024-02-26T11:53:47;1004.706;;;-1.59;51.65137
72975;BME280;74127;54.228;37.632;2024-02-26T11:57:47;1004.706;;;-1.59;51.65137
72975;BME280;74127;54.228;37.632;2024-02-26T12:01:48;1004.708;;;-1.63;50.35449
72975;BME280;74127;54.228;37.632;2024-02-26T12:05:47;1004.636;;;-1.65;50.97656
72975;BME280;74127;54.228;37.632;2024-02-26T12:09:47;1004.633;;;-1.6;51.03516
72975;BME280;74127;54.228;37.632;2024-02-26T12:13:47;1004.588;;;-1.58;51.40918
72975;BME280;74127;54.228;37.632;2024-02-26T12:17:48;1004.588;;;-1.58;51.40918
72975;BME280;74127;54.228;37.632;2024-02-26T12:21:51;1004.647;;;-1.65;50.99902
72975;BME280;74127;54.228;37.632;2024-02-26T12:25:48;1004.718;;;-1.65;51.26367
72975;BME280;74127;54.228;37.632;2024-02-26T12:29:47;1004.668;;;-1.7;51.24609
72975;BME280;74127;54.228;37.632;2024-02-26T12:33:47;1004.722;;;-1.78;51.16309
72975;BME280;74127;54.228;37.632;2024-02-26T12:37:48;1004.722;;;-1.78;51.16309
72975;BME280;74127;54.228;37.632;2024-02-26T12:41:47;1004.49;;;-1.83;51.99316
72975;BME280;74127;54.228;37.632;2024-02-26T12:45:47;1004.432;;;-1.74;51.46289
72975;BME280;74127;54.228;37.632;2024-02-26T12:49:47;1004.365;;;-1.79;51.46875
72975;BME280;74127;54.228;37.632;2024-02-26T12:53:48;1004.422;;;-1.74;51.52734
72975;BME280;74127;54.228;37.632;2024-02-26T12:57:48;1004.422;;;-1.74;51.52734
72975;BME280;74127;54.228;37.632;2024-02-26T13:05:48;1004.33;;;-1.73;51.16895
72975;BME280;74127;54.228;37.632;2024-02-26T13:09:48;1004.409;;;-1.72;50.2373
72975;BME280;74127;54.228;37.632;2024-02-26T13:13:48;1004.349;;;-1.77;51.2373
72975;BME280;74127;54.228;37.632;2024-02-26T13:17:48;1004.349;;;-1.77;51.2373
72975;BME280;74127;54.228;37.632;2024-02-26T13:21:48;1004.258;;;-1.8;51.29883
72975;BME280;74127;54.228;37.632;2024-02-26T13:25:48;1004.234;;;-1.79;50.72754
72975;BME280;74127;54.228;37.632;2024-02-26T13:29:48;1004.34;;;-1.8;51.12891
72975;BME280;74127;54.228;37.632;2024-02-26T13:33:48;1004.297;;;-1.79;50.25195
72975;BME280;74127;54.228;37.632;2024-02-26T13:37:48;1004.297;;;-1.79;50.25195
72975;BME280;74127;54.228;37.632;2024-02-26T13:41:48;1004.157;;;-1.88;50.9502
72975;BME280;74127;54.228;37.632;2024-02-26T13:45:48;1004.129;;;-1.9;51.4541
72975;BME280;74127;54.228;37.632;2024-02-26T13:49:48;1004.2;;;-1.85;51.69336
72975;BME280;74127;54.228;37.632;2024-02-26T13:53:48;1004.242;;;-1.85;51.87402
72975;BME280;74127;54.228;37.632;2024-02-26T13:57:48;1004.242;;;-1.85;51.87402
72975;BME280;74127;54.228;37.632;2024-02-26T14:01:48;1004.198;;;-1.9;52.05859
72975;BME280;74127;54.228;37.632;2024-02-26T14:05:48;1004.286;;;-1.89;51.54102
72975;BME280;74127;54.228;37.632;2024-02-26T14:09:48;1004.154;;;-1.9;51.77148
72975;BME280;74127;54.228;37.632;2024-02-26T14:13:48;1004.079;;;-1.89;51.66699
72975;BME280;74127;54.228;37.632;2024-02-26T14:17:48;1004.079;;;-1.89;51.66699
72975;BME280;74127;54.228;37.632;2024-02-26T14:21:48;1004.102;;;-1.93;51.62012
72975;BME280;74127;54.228;37.632;2024-02-26T14:25:48;1004.297;;;-1.89;51.78418
72975;BME280;74127;54.228;37.632;2024-02-26T14:29:48;1004.328;;;-1.91;51.77051
72975;BME280;74127;54.228;37.632;2024-02-26T14:33:48;1004.41;;;-1.93;51.99023
72975;BME280;74127;54.228;37.632;2024-02-26T14:37:48;1004.41;;;-1.93;51.99023
72975;BME280;74127;54.228;37.632;2024-02-26T14:45:48;1004.739;;;-1.99;53.60156
72975;BME280;74127;54.228;37.632;2024-02-26T14:49:48;1004.584;;;-2.07;53.93848
72975;BME280;74127;54.228;37.632;2024-02-26T14:53:48;1004.582;;;-2.25;54.83594
72975;BME280;74127;54.228;37.632;2024-02-26T14:57:48;1004.582;;;-2.25;54.83594
72975;BME280;74127;54.228;37.632;2024-02-26T15:01:48;1004.558;;;-2.39;55.37598
72975;BME280;74127;54.228;37.632;2024-02-26T15:05:48;1004.838;;;-2.53;56.41406
72975;BME280;74127;54.228;37.632;2024-02-26T15:09:48;1004.678;;;-2.56;56.33398
72975;BME280;74127;54.228;37.632;2024-02-26T15:13:48;1004.559;;;-2.6;56.66797
72975;BME280;74127;54.228;37.632;2024-02-26T15:17:48;1004.559;;;-2.6;56.66797
72975;BME280;74127;54.228;37.632;2024-02-26T15:21:48;1004.524;;;-2.62;56.7168
72975;BME280;74127;54.228;37.632;2024-02-26T15:25:48;1004.56;;;-2.68;57.04688
72975;BME280;74127;54.228;37.632;2024-02-26T15:29:48;1004.671;;;-2.72;57.20898
72975;BME280;74127;54.228;37.632;2024-02-26T15:33:48;1004.823;;;-2.7;57.3916
72975;BME280;74127;54.228;37.632;2024-02-26T15:37:48;1004.823;;;-2.7;57.3916
72975;BME280;74127;54.228;37.632;2024-02-26T15:41:48;1004.923;;;-2.71;57.58008
72975;BME280;74127;54.228;37.632;2024-02-26T15:45:48;1004.846;;;-2.74;57.76465
72975;BME280;74127;54.228;37.632;2024-02-26T15:49:48;1004.942;;;-2.82;58.0498
72975;BME280;74127;54.228;37.632;2024-02-26T15:53:48;1005.041;;;-2.84;58.21582
72975;BME280;74127;54.228;37.632;2024-02-26T15:57:48;1005.041;;;-2.84;58.21582
72975;BME280;74127;54.228;37.632;2024-02-26T16:01:48;1004.994;;;-2.89;58.53418
72975;BME280;74127;54.228;37.632;2024-02-26T16:05:48;1005.021;;;-2.97;58.87109
72975;BME280;74127;54.228;37.632;2024-02-26T16:09:52;1004.992;;;-2.96;58.84082
72975;BME280;74127;54.228;37.632;2024-02-26T16:13:49;1005.012;;;-2.95;59.03223
72975;BME280;74127;54.228;37.632;2024-02-26T16:17:48;1005.012;;;-2.95;59.03223
72975;BME280;74127;54.228;37.632;2024-02-26T16:21:48;1005.037;;;-2.93;58.87695
72975;BME280;74127;54.228;37.632;2024-02-26T16:25:48;1005.106;;;-2.97;59.09277
72975;BME280;74127;54.228;37.632;2024-02-26T16:29:48;1005.002;;;-3;59.15137
72975;BME280;74127;54.228;37.632;2024-02-26T16:33:48;1005.078;;;-3.01;59.34961
72975;BME280;74127;54.228;37.632;2024-02-26T16:37:48;1005.078;;;-3.01;59.34961
72975;BME280;74127;54.228;37.632;2024-02-26T16:41:48;1005.059;;;-3.03;59.35742
72975;BME280;74127;54.228;37.632;2024-02-26T16:45:48;1004.957;;;-3.1;59.58984
72975;BME280;74127;54.228;37.632;2024-02-26T16:49:48;1004.957;;;-3.13;59.77539
72975;BME280;74127;54.228;37.632;2024-02-26T16:53:48;1004.966;;;-3.16;60.06445
72975;BME280;74127;54.228;37.632;2024-02-26T16:57:48;1004.966;;;-3.16;60.06445
72975;BME280;74127;54.228;37.632;2024-02-26T17:01:49;1005.008;;;-3.21;60.38281
72975;BME280;74127;54.228;37.632;2024-02-26T17:05:48;1005.052;;;-3.29;60.62402
72975;BME280;74127;54.228;37.632;2024-02-26T17:09:48;1004.94;;;-3.37;60.9502
72975;BME280;74127;54.228;37.632;2024-02-26T17:13:48;1004.92;;;-3.49;61.33203
72975;BME280;74127;54.228;37.632;2024-02-26T17:17:48;1004.92;;;-3.49;61.33203
72975;BME280;74127;54.228;37.632;2024-02-26T17:21:48;1004.916;;;-3.56;61.61621
72975;BME280;74127;54.228;37.632;2024-02-26T17:25:48;1004.892;;;-3.61;61.71387
72975;BME280;74127;54.228;37.632;2024-02-26T17:29:48;1004.867;;;-3.7;62.10059
72975;BME280;74127;54.228;37.632;2024-02-26T17:33:48;1004.892;;;-3.78;62.27637
72975;BME280;74127;54.228;37.632;2024-02-26T17:37:49;1004.892;;;-3.78;62.27637
72975;BME280;74127;54.228;37.632;2024-02-26T17:41:48;1004.891;;;-3.85;62.41406
72975;BME280;74127;54.228;37.632;2024-02-26T17:45:48;1005.002;;;-3.87;62.50488
72975;BME280;74127;54.228;37.632;2024-02-26T17:49:48;1005.102;;;-3.87;62.39941
72975;BME280;74127;54.228;37.632;2024-02-26T17:53:48;1005.174;;;-3.92;62.27734
72975;BME280;74127;54.228;37.632;2024-02-26T17:57:48;1005.174;;;-3.92;62.27734
72975;BME280;74127;54.228;37.632;2024-02-26T18:01:48;1005.086;;;-4.02;62.54492
72975;BME280;74127;54.228;37.632;2024-02-26T18:05:48;1005.059;;;-4.06;62.63379
72975;BME280;74127;54.228;37.632;2024-02-26T18:09:48;1005.098;;;-4.01;62.52539
72975;BME280;74127;54.228;37.632;2024-02-26T18:13:48;1005.087;;;-4.07;62.62207
72975;BME280;74127;54.228;37.632;2024-02-26T18:17:48;1005.087;;;-4.07;62.62207
72975;BME280;74127;54.228;37.632;2024-02-26T18:21:48;1005.109;;;-4.03;62.64844
72975;BME280;74127;54.228;37.632;2024-02-26T18:25:48;1005.115;;;-4.04;62.58496
72975;BME280;74127;54.228;37.632;2024-02-26T18:29:48;1005.058;;;-4.1;62.68066
72975;BME280;74127;54.228;37.632;2024-02-26T18:33:48;1004.889;;;-4.16;62.95605
72975;BME280;74127;54.228;37.632;2024-02-26T18:37:48;1004.889;;;-4.16;62.95605
72975;BME280;74127;54.228;37.632;2024-02-26T18:41:48;1005.008;;;-4.11;62.89844
72975;BME280;74127;54.228;37.632;2024-02-26T18:45:48;1004.994;;;-4.11;62.91016
72975;BME280;74127;54.228;37.632;2024-02-26T18:49:48;1004.941;;;-4.14;63.05273
72975;BME280;74127;54.228;37.632;2024-02-26T18:57:48;1004.979;;;-4.15;63.19727
72975;BME280;74127;54.228;37.632;2024-02-26T19:01:49;1004.913;;;-4.09;63.08105
72975;BME280;74127;54.228;37.632;2024-02-26T19:05:48;1004.976;;;-4.07;63.13574
72975;BME280;74127;54.228;37.632;2024-02-26T19:09:48;1004.922;;;-4.1;63.2666
72975;BME280;74127;54.228;37.632;2024-02-26T19:13:48;1004.916;;;-4.07;63.31445
72975;BME280;74127;54.228;37.632;2024-02-26T19:17:49;1004.916;;;-4.07;63.31445
72975;BME280;74127;54.228;37.632;2024-02-26T19:21:48;1004.922;;;-4.11;63.47656
72975;BME280;74127;54.228;37.632;2024-02-26T19:25:48;1004.967;;;-4.12;63.54883
72975;BME280;74127;54.228;37.632;2024-02-26T19:29:48;1004.942;;;-4.17;63.59277
72975;BME280;74127;54.228;37.632;2024-02-26T19:33:48;1004.968;;;-4.16;63.60449
72975;BME280;74127;54.228;37.632;2024-02-26T19:37:48;1004.968;;;-4.16;63.60449
72975;BME280;74127;54.228;37.632;2024-02-26T19:41:48;1004.986;;;-4.19;63.74707
72975;BME280;74127;54.228;37.632;2024-02-26T19:45:48;1004.881;;;-4.21;63.85938
72975;BME280;74127;54.228;37.632;2024-02-26T19:49:48;1004.814;;;-4.24;64.03223
72975;BME280;74127;54.228;37.632;2024-02-26T19:53:49;1004.898;;;-4.23;64.06641
72975;BME280;74127;54.228;37.632;2024-02-26T19:57:48;1004.898;;;-4.23;64.06641
72975;BME280;74127;54.228;37.632;2024-02-26T20:01:48;1004.926;;;-4.22;64.08887
72975;BME280;74127;54.228;37.632;2024-02-26T20:05:48;1004.741;;;-4.29;64.31836
72975;BME280;74127;54.228;37.632;2024-02-26T20:09:48;1004.792;;;-4.29;64.38086
72975;BME280;74127;54.228;37.632;2024-02-26T20:13:48;1004.834;;;-4.24;64.3584
72975;BME280;74127;54.228;37.632;2024-02-26T20:17:48;1004.834;;;-4.24;64.3584
72975;BME280;74127;54.228;37.632;2024-02-26T20:21:48;1004.872;;;-4.17;64.29395
72975;BME280;74127;54.228;37.632;2024-02-26T20:25:48;1004.867;;;-4.16;64.28613
72975;BME280;74127;54.228;37.632;2024-02-26T20:29:48;1004.853;;;-4.13;64.22754
72975;BME280;74127;54.228;37.632;2024-02-26T20:33:48;1004.902;;;-4.13;64.25879